Time;durP1;ratioP1;P1;durP2;ratioP2;P2;SDS_P1;SDS_P2;PMS_P1;PMS_P2;Temp;Humidity;BMP_temperature;BMP_pressure;BME280_temperature;BME280_humidity;BME280_pressure;Samples;Min_cycle;Max_cycle;Signal;HPM_P1;HPM_P2
2023/10/01 00:00:17;;;;;;;8.50;6.30;;;;;;;15.06;62.60;101816.09;680033;29;1216;-95
2023/10/01 00:00:42;;;;;;;10.47;6.60;;;;;;;15.11;62.53;101820.59;683106;29;1186;-95
2023/10/01 00:01:03;;;;;;;11.40;6.47;;;;;;;15.07;62.76;101812.59;682667;29;1301;-95
2023/10/01 00:01:24;;;;;;;9.67;6.13;;;;;;;15.12;62.86;101825.00;685879;28;1143;-95
2023/10/01 00:01:45;;;;;;;9.27;6.25;;;;;;;15.13;62.78;101826.75;680269;29;1202;-95
2023/10/01 00:02:05;;;;;;;9.70;6.28;;;;;;;15.05;62.89;101813.41;682974;28;1356;-95
2023/10/01 00:02:26;;;;;;;9.95;6.18;;;;;;;15.11;62.89;101820.59;683114;29;1145;-95
2023/10/01 00:02:51;;;;;;;9.57;6.55;;;;;;;15.15;62.80;101827.69;678101;29;1247;-95
2023/10/01 00:03:40;;;;;;;10.23;6.85;;;;;;;15.20;62.87;101828.72;685714;28;1222;-96
2023/10/01 00:04:04;;;;;;;15.15;7.28;;;;;;;15.19;62.98;101824.31;682990;28;1549;-95
2023/10/01 00:04:24;;;;;;;14.55;6.63;;;;;;;15.18;62.91;101818.13;686008;28;1369;-95
2023/10/01 00:04:46;;;;;;;11.98;6.88;;;;;;;15.21;62.80;101825.25;688542;28;1292;-95
2023/10/01 00:05:08;;;;;;;8.15;6.57;;;;;;;15.18;62.76;101819.91;677833;29;1247;-94
2023/10/01 00:05:29;;;;;;;9.80;6.90;;;;;;;15.23;62.69;101828.81;685748;28;1221;-96
2023/10/01 00:05:50;;;;;;;10.52;6.70;;;;;;;15.23;62.79;101823.53;688716;28;1229;-95
2023/10/01 00:06:11;;;;;;;11.98;7.10;;;;;;;15.26;62.52;101828.91;680500;29;1229;-95
2023/10/01 00:06:34;;;;;;;11.52;7.07;;;;;;;15.23;62.69;101815.66;680608;29;1180;-95
2023/10/01 00:06:54;;;;;;;11.75;7.43;;;;;;;15.25;62.74;101827.13;678057;29;1226;-95
2023/10/01 00:07:15;;;;;;;9.80;6.95;;;;;;;15.27;62.65;101821.88;683106;29;1177;-95
2023/10/01 00:07:37;;;;;;;9.10;6.70;;;;;;;15.26;62.69;101820.09;685746;28;1195;-95
2023/10/01 00:07:57;;;;;;;8.60;6.50;;;;;;;15.32;62.47;101828.16;680423;29;1377;-95
2023/10/01 00:08:18;;;;;;;10.10;6.93;;;;;;;15.31;62.67;101822.00;677405;29;1189;-94
2023/10/01 00:08:39;;;;;;;9.90;7.10;;;;;;;15.40;62.39;101831.88;688394;28;1989;-95
2023/10/01 00:09:05;;;;;;;10.00;7.13;;;;;;;15.33;62.51;101825.59;685499;28;1341;-95
2023/10/01 00:09:26;;;;;;;10.32;7.13;;;;;;;15.45;62.63;101834.63;680626;29;1222;-95
2023/10/01 00:09:47;;;;;;;11.13;6.78;;;;;;;15.43;62.43;101828.44;686077;28;1251;-95
2023/10/01 00:10:10;;;;;;;9.90;6.45;;;;;;;15.49;62.40;101836.47;688598;28;1369;-95
2023/10/01 00:10:31;;;;;;;10.60;6.95;;;;;;;15.48;62.46;101827.69;685989;28;1331;-95
2023/10/01 00:10:52;;;;;;;10.20;7.33;;;;;;;15.45;62.11;101824.09;684872;28;1202;-95
2023/10/01 00:11:12;;;;;;;10.95;7.22;;;;;;;15.51;62.46;101834.78;685426;28;1277;-95
2023/10/01 00:11:35;;;;;;;10.43;6.45;;;;;;;15.48;62.40;101830.31;680831;29;1352;-95
2023/10/01 00:11:57;;;;;;;10.10;6.30;;;;;;;15.51;62.37;101829.50;685822;28;1326;-96
2023/10/01 00:12:18;;;;;;;9.30;6.50;;;;;;;15.51;62.22;101821.63;685711;28;1210;-95
2023/10/01 00:12:44;;;;;;;9.40;6.57;;;;;;;15.52;62.19;101817.22;691237;28;1325;-96
2023/10/01 00:13:04;;;;;;;8.95;6.45;;;;;;;15.56;62.31;101835.75;684961;28;1254;-95
2023/10/01 00:13:26;;;;;;;8.63;6.47;;;;;;;15.58;62.37;101831.44;680519;29;1246;-95
2023/10/01 00:13:47;;;;;;;8.88;6.78;;;;;;;15.58;62.34;101836.69;685607;28;1189;-95
2023/10/01 00:14:08;;;;;;;9.38;6.82;;;;;;;15.54;62.33;101826.06;682959;29;1245;-95
2023/10/01 00:14:29;;;;;;;10.00;7.28;;;;;;;15.58;62.45;101820.91;680690;29;1243;-95
2023/10/01 00:14:53;;;;;;;10.27;7.47;;;;;;;15.54;62.29;101812.91;680307;29;1165;-96
2023/10/01 00:15:20;;;;;;;10.15;7.32;;;;;;;15.54;62.35;101819.06;685464;28;1493;-95
2023/10/01 00:15:41;;;;;;;13.10;7.50;;;;;;;15.58;62.50;101823.56;683386;28;1241;-95
2023/10/01 00:16:02;;;;;;;12.43;7.40;;;;;;;15.56;62.44;101817.34;682493;29;1386;-95
2023/10/01 00:16:23;;;;;;;12.90;7.30;;;;;;;15.59;62.21;101822.69;688236;28;1253;-95
2023/10/01 00:16:44;;;;;;;10.35;6.85;;;;;;;15.62;62.37;101822.75;680741;29;1328;-95
2023/10/01 00:17:05;;;;;;;14.73;7.20;;;;;;;15.58;62.45;101805.13;688214;28;1301;-95
2023/10/01 00:17:25;;;;;;;13.25;6.63;;;;;;;15.57;62.50;101808.63;685914;28;1157;-94
2023/10/01 00:17:48;;;;;;;14.05;6.70;;;;;;;15.54;62.42;101800.63;680272;29;1267;-95
2023/10/01 00:18:09;;;;;;;9.05;6.22;;;;;;;15.69;62.50;101825.53;691186;28;1338;-95
2023/10/01 00:18:30;;;;;;;12.23;6.70;;;;;;;15.68;62.68;101821.13;688364;28;1421;-96
2023/10/01 00:18:51;;;;;;;9.98;6.20;;;;;;;15.65;62.35;101815.78;682694;29;1229;-95
2023/10/01 00:19:12;;;;;;;10.35;6.20;;;;;;;15.61;62.38;101813.09;683113;29;1423;-95
2023/10/01 00:19:33;;;;;;;9.10;6.17;;;;;;;15.66;62.38;101817.59;685948;28;1301;-95
2023/10/01 00:19:53;;;;;;;10.18;6.35;;;;;;;15.70;62.48;101829.94;680235;29;1145;-96
2023/10/01 00:20:20;;;;;;;9.88;6.50;;;;;;;15.63;62.33;101814.00;680578;29;1267;-95
2023/10/01 00:20:41;;;;;;;8.75;7.03;;;;;;;15.70;62.39;101822.06;686050;28;1347;-96
2023/10/01 00:21:03;;;;;;;10.45;7.10;;;;;;;15.73;62.33;101827.41;685150;28;1268;-95
2023/10/01 00:21:27;;;;;;;11.00;6.97;;;;;;;15.73;62.33;101824.78;678071;29;1235;-95
2023/10/01 00:21:47;;;;;;;11.30;7.00;;;;;;;15.75;62.19;101830.94;688713;28;1279;-96
2023/10/01 00:22:08;;;;;;;8.85;6.68;;;;;;;15.71;62.33;101821.19;695672;28;1183;-95
2023/10/01 00:22:33;;;;;;;9.25;7.10;;;;;;;15.69;62.24;101812.38;685227;28;1387;-95
2023/10/01 00:23:05;;;;;;;14.15;6.80;;;;;;;15.76;62.34;101815.16;685874;28;1282;-95
2023/10/01 00:23:26;;;;;;;14.48;6.95;;;;;;;15.74;61.98;101814.25;683221;28;1182;-95
2023/10/01 00:23:47;;;;;;;10.27;6.80;;;;;;;15.76;61.93;101816.94;691414;28;1165;-95
2023/10/01 00:24:08;;;;;;;9.13;6.72;;;;;;;15.76;61.97;101814.31;690899;28;1189;-95
2023/10/01 00:24:29;;;;;;;8.55;6.40;;;;;;;15.76;61.83;101819.56;680884;29;1280;-94
2023/10/01 00:24:50;;;;;;;10.35;6.80;;;;;;;15.76;61.91;101816.94;685834;28;1343;-95
2023/10/01 00:25:11;;;;;;;10.32;6.78;;;;;;;15.79;61.76;101819.63;688315;28;1195;-95
2023/10/01 00:25:33;;;;;;;11.00;6.82;;;;;;;15.75;61.89;101816.03;688021;28;1322;-95
2023/10/01 00:25:54;;;;;;;9.52;6.68;;;;;;;15.73;61.86;101809.84;684987;28;1361;-95
2023/10/01 00:26:14;;;;;;;9.27;6.70;;;;;;;15.69;61.81;101817.66;685661;28;1351;-94
2023/10/01 00:26:38;;;;;;;7.95;6.53;;;;;;;15.72;61.86;101822.97;691160;28;1398;-95
2023/10/01 00:27:01;;;;;;;8.43;6.38;;;;;;;15.63;61.90;101814.00;683067;29;1384;-95
2023/10/01 00:27:22;;;;;;;9.50;6.40;;;;;;;15.67;62.07;101822.84;682550;29;1246;-95
2023/10/01 00:27:42;;;;;;;10.45;6.68;;;;;;;15.67;61.77;101829.88;680670;29;1259;-95
2023/10/01 00:28:04;;;;;;;9.50;6.57;;;;;;;15.62;62.01;101828.00;688164;28;1257;-95
2023/10/01 00:28:25;;;;;;;10.50;6.70;;;;;;;15.57;62.16;101813.88;688390;28;1914;-95
2023/10/01 00:28:50;;;;;;;10.20;6.40;;;;;;;15.54;61.99;101819.06;686014;28;1144;-95
2023/10/01 00:29:11;;;;;;;10.18;6.50;;;;;;;15.52;62.06;101820.75;687488;28;1323;-96
2023/10/01 00:29:32;;;;;;;8.85;6.25;;;;;;;15.45;62.08;101810.94;683217;29;1270;-95
2023/10/01 00:29:53;;;;;;;9.32;6.20;;;;;;;15.48;62.15;101816.25;680387;29;1221;-94
2023/10/01 00:30:14;;;;;;;10.30;6.38;;;;;;;15.44;62.44;101812.66;677670;29;1325;-95
2023/10/01 00:30:36;;;;;;;9.77;6.40;;;;;;;15.45;62.30;101824.09;688459;28;1220;-94
2023/10/01 00:30:57;;;;;;;10.32;6.57;;;;;;;15.40;62.45;101812.56;688359;28;1292;-95
2023/10/01 00:31:19;;;;;;;9.50;6.50;;;;;;;15.40;62.39;101825.72;685822;28;1270;-95
2023/10/01 00:31:41;;;;;;;8.52;6.20;;;;;;;15.35;62.47;101820.34;685964;28;1411;-95
2023/10/01 00:32:04;;;;;;;7.85;5.95;;;;;;;15.28;62.53;101813.13;680462;29;1229;-95
2023/10/01 00:32:28;;;;;;;9.55;5.85;;;;;;;15.35;62.72;101822.97;688440;28;1188;-96
2023/10/01 00:32:49;;;;;;;9.88;5.80;;;;;;;15.32;62.55;101825.53;683196;28;1359;-96
2023/10/01 00:33:11;;;;;;;8.65;5.85;;;;;;;15.28;62.60;101819.31;685730;28;1354;-95
2023/10/01 00:33:32;;;;;;;9.68;6.00;;;;;;;15.28;62.44;101827.19;688097;28;1270;-94
2023/10/01 00:33:52;;;;;;;12.18;6.18;;;;;;;15.22;62.53;101811.25;685734;28;1255;-96
2023/10/01 00:34:13;;;;;;;13.27;6.23;;;;;;;15.27;62.70;101830.69;682604;29;1244;-95
2023/10/01 00:34:34;;;;;;;12.50;6.60;;;;;;;15.22;62.55;101813.88;679970;29;1181;-95
2023/10/01 00:34:57;;;;;;;8.80;6.50;;;;;;;15.16;62.65;101814.59;676870;29;1198;-95
2023/10/01 00:35:18;;;;;;;7.60;6.30;;;;;;;15.18;62.51;101817.28;677700;29;1316;-95
2023/10/01 00:35:40;;;;;;;7.80;6.22;;;;;;;15.13;62.85;101808.34;688524;28;1450;-94
2023/10/01 00:36:02;;;;;;;10.55;6.88;;;;;;;15.10;62.61;101803.03;683044;29;1364;-94
2023/10/01 00:36:23;;;;;;;10.27;6.70;;;;;;;15.14;62.87;101807.50;683012;29;1274;-94
2023/10/01 00:36:44;;;;;;;10.15;6.80;;;;;;;15.13;62.83;101811.88;682949;29;1293;-94
2023/10/01 00:37:04;;;;;;;8.57;6.53;;;;;;;15.11;62.94;101802.19;682753;28;1270;-95
2023/10/01 00:37:27;;;;;;;8.65;6.65;;;;;;;15.07;62.94;101802.09;685615;28;1297;-94
2023/10/01 00:37:48;;;;;;;8.20;6.30;;;;;;;15.14;62.87;101812.75;677813;29;1351;-94
2023/10/01 00:38:09;;;;;;;8.23;6.03;;;;;;;15.05;63.01;101802.88;682886;28;1173;-95
2023/10/01 00:38:29;;;;;;;7.68;5.60;;;;;;;15.08;63.26;101809.13;688080;28;1374;-95
2023/10/01 00:38:50;;;;;;;8.48;5.90;;;;;;;15.06;62.97;101802.06;677816;29;1163;-94
2023/10/01 00:39:12;;;;;;;8.10;6.10;;;;;;;15.05;63.20;101809.03;677382;29;1184;-95
2023/10/01 00:39:34;;;;;;;8.20;6.03;;;;;;;15.03;63.18;101808.13;682510;28;1428;-95
2023/10/01 00:39:56;;;;;;;6.75;5.60;;;;;;;15.03;63.33;101810.75;685695;28;1240;-95
2023/10/01 00:41:20;;;;;;;8.30;5.90;;;;;;;14.96;63.25;101803.56;685882;28;1420;-93
2023/10/01 00:41:41;;;;;;;8.97;6.30;;;;;;;14.99;63.08;101805.38;685647;28;1299;-95
2023/10/01 00:42:06;;;;;;;9.52;6.38;;;;;;;14.98;63.14;101811.50;679970;29;1352;-95
2023/10/01 00:42:28;;;;;;;9.13;6.15;;;;;;;14.97;62.97;101815.84;680419;29;1440;-95
2023/10/01 00:42:50;;;;;;;9.88;6.72;;;;;;;14.88;63.02;101797.22;683125;29;1351;-94
2023/10/01 00:43:12;;;;;;;9.95;6.70;;;;;;;14.89;63.21;101807.75;679830;29;1361;-95
2023/10/01 00:43:33;;;;;;;10.15;6.78;;;;;;;14.91;63.14;101816.56;682942;29;1265;-95
2023/10/01 00:43:55;;;;;;;11.20;6.10;;;;;;;14.92;63.15;101818.34;680495;29;1300;-94
2023/10/01 00:44:17;;;;;;;11.20;6.38;;;;;;;14.90;63.30;101824.41;678348;29;1394;-94
2023/10/01 00:44:39;;;;;;;9.68;6.13;;;;;;;14.89;63.18;101820.00;683337;29;1289;-95
2023/10/01 00:45:01;;;;;;;11.07;6.50;;;;;;;14.86;63.36;101818.19;677842;29;1294;-95
2023/10/01 00:45:22;;;;;;;12.27;6.50;;;;;;;14.85;63.33;101819.03;683158;29;1457;-95
2023/10/01 00:45:44;;;;;;;10.75;6.25;;;;;;;14.84;63.19;101819.88;679949;29;1239;-95
2023/10/01 00:46:05;;;;;;;9.30;6.38;;;;;;;14.86;63.51;101828.69;682953;29;1434;-95
2023/10/01 00:46:27;;;;;;;8.18;6.38;;;;;;;14.79;63.21;101819.78;683147;29;1493;-95
2023/10/01 00:46:48;;;;;;;7.72;6.35;;;;;;;14.78;63.48;101820.63;682775;29;1357;-94
2023/10/01 00:47:08;;;;;;;8.55;6.25;;;;;;;14.79;63.38;101826.75;688104;28;1228;-95
2023/10/01 00:47:31;;;;;;;9.68;6.70;;;;;;;14.78;63.48;101825.88;683149;29;1235;-95
2023/10/01 00:47:53;;;;;;;10.13;6.60;;;;;;;14.77;63.58;101833.69;683181;29;1228;-95
2023/10/01 00:48:14;;;;;;;8.50;6.40;;;;;;;14.78;63.53;101836.38;682709;29;1246;-95
2023/10/01 00:48:36;;;;;;;7.40;6.30;;;;;;;14.72;63.33;101830.03;680647;29;1970;-94
2023/10/01 00:49:00;;;;;;;6.80;5.97;;;;;;;14.71;63.49;101829.19;687803;28;1398;-95
2023/10/01 00:49:22;;;;;;;7.53;5.88;;;;;;;14.70;63.35;101831.75;688352;28;1369;-95
2023/10/01 00:49:48;;;;;;;8.70;5.78;;;;;;;14.63;63.60;101818.44;680524;29;1266;-95
2023/10/01 00:50:12;;;;;;;9.10;6.40;;;;;;;14.66;63.50;101830.78;677727;29;1265;-95
2023/10/01 00:50:38;;;;;;;9.57;6.85;;;;;;;14.65;63.45;101824.63;685849;28;1175;-95
2023/10/01 00:51:00;;;;;;;10.18;6.68;;;;;;;14.68;63.49;101836.09;685639;28;1367;-95
2023/10/01 00:51:22;;;;;;;9.00;6.60;;;;;;;14.62;63.70;101823.66;683076;28;1484;-95
2023/10/01 00:51:43;;;;;;;9.38;6.55;;;;;;;14.62;63.60;101831.56;685808;28;1162;-95
2023/10/01 00:52:10;;;;;;;10.32;6.70;;;;;;;14.65;63.61;101843.00;680216;29;1269;-96
2023/10/01 00:52:30;;;;;;;10.80;6.57;;;;;;;14.61;63.80;101832.38;680450;29;1365;-95
2023/10/01 00:52:53;;;;;;;9.80;6.63;;;;;;;14.56;63.70;101820.88;685985;28;1286;-95
2023/10/01 00:53:13;;;;;;;8.80;6.60;;;;;;;14.53;63.82;101808.53;680240;29;1331;-95
2023/10/01 00:53:34;;;;;;;10.70;7.07;;;;;;;14.58;63.78;101827.94;685594;28;1172;-94
2023/10/01 00:53:58;;;;;;;11.60;7.03;;;;;;;14.54;63.56;101812.94;685648;28;1208;-96
2023/10/01 00:54:19;;;;;;;10.93;7.10;;;;;;;14.61;63.67;101822.75;685685;28;1242;-95
2023/10/01 00:54:40;;;;;;;11.13;7.23;;;;;;;14.58;63.93;101816.53;680663;29;1272;-95
2023/10/01 00:55:01;;;;;;;11.77;7.50;;;;;;;14.58;63.85;101811.28;685644;28;1441;-95
2023/10/01 00:55:22;;;;;;;9.70;7.07;;;;;;;14.52;64.05;101806.75;682463;29;1294;-95
2023/10/01 00:55:43;;;;;;;9.57;6.75;;;;;;;14.60;64.06;101821.00;683132;29;1238;-95
2023/10/01 00:56:04;;;;;;;8.88;6.80;;;;;;;14.53;64.02;101809.41;685597;28;1165;-95
2023/10/01 00:56:25;;;;;;;10.73;7.22;;;;;;;14.56;63.89;101812.97;680050;29;1320;-94
2023/10/01 00:56:46;;;;;;;11.00;7.30;;;;;;;14.49;64.05;101802.28;680647;29;1171;-94
2023/10/01 00:57:08;;;;;;;11.32;7.13;;;;;;;14.62;64.03;101821.03;680072;29;1327;-95
2023/10/01 00:57:29;;;;;;;15.10;7.10;;;;;;;14.58;64.25;101816.53;677901;29;1206;-95
2023/10/01 00:57:54;;;;;;;15.88;6.93;;;;;;;14.49;64.24;101804.00;678022;29;1234;-95
2023/10/01 00:58:15;;;;;;;14.98;6.90;;;;;;;14.56;63.99;101826.13;682197;29;1262;-95
2023/10/01 00:58:37;;;;;;;11.35;7.35;;;;;;;14.55;64.50;101821.72;680426;29;1269;-95
2023/10/01 00:58:58;;;;;;;11.00;7.80;;;;;;;14.57;64.35;101822.63;682965;29;1315;-96
2023/10/01 00:59:19;;;;;;;12.07;8.00;;;;;;;14.56;64.40;101829.63;682214;28;1158;-94
2023/10/01 00:59:43;;;;;;;11.55;7.70;;;;;;;14.53;64.30;101819.03;680108;29;1266;-95
2023/10/01 01:00:14;;;;;;;11.68;7.78;;;;;;;14.45;64.36;101805.66;682894;29;1247;-95
2023/10/01 01:00:36;;;;;;;11.55;7.90;;;;;;;14.46;64.49;101812.72;682771;28;1377;-95
2023/10/01 01:00:57;;;;;;;11.68;7.43;;;;;;;14.47;64.41;101819.75;686959;28;1240;-94
2023/10/01 01:01:19;;;;;;;11.07;7.43;;;;;;;14.48;64.25;101815.38;682847;29;1213;-95
2023/10/01 01:01:39;;;;;;;10.80;7.38;;;;;;;14.50;64.37;101829.47;680141;29;1206;-95
2023/10/01 01:02:00;;;;;;;11.23;7.70;;;;;;;14.48;64.52;101832.03;685472;28;1355;-95
2023/10/01 01:02:22;;;;;;;10.80;7.35;;;;;;;14.45;64.44;101820.56;683078;29;1168;-95
2023/10/01 01:02:56;;;;;;;11.13;7.38;;;;;;;14.38;64.56;101819.50;680593;29;1234;-95
2023/10/01 01:03:22;;;;;;;9.10;7.00;;;;;;;14.38;64.33;101815.13;680421;29;1284;-94
2023/10/01 01:03:43;;;;;;;8.48;6.53;;;;;;;14.37;64.47;101820.31;680657;29;1348;-95
2023/10/01 01:04:09;;;;;;;8.60;6.53;;;;;;;14.36;64.41;101818.53;685544;28;1339;-95
2023/10/01 01:04:36;;;;;;;10.57;6.28;;;;;;;14.31;64.38;101822.78;683369;28;1269;-95
2023/10/01 01:05:19;;;;;;;11.15;6.43;;;;;;;14.34;64.59;101822.88;680575;29;1384;-95
2023/10/01 01:05:57;;;;;;;8.50;6.18;;;;;;;14.29;64.52;101819.19;683138;29;1325;-95
2023/10/01 01:06:23;;;;;;;9.98;6.80;;;;;;;14.31;64.49;101833.28;682938;29;1416;-95
2023/10/01 01:06:47;;;;;;;9.77;6.68;;;;;;;14.30;64.67;101831.47;677797;29;1268;-95
2023/10/01 01:07:15;;;;;;;8.90;6.18;;;;;;;14.27;64.55;101832.31;682889;29;1199;-95
2023/10/01 01:07:36;;;;;;;8.80;6.50;;;;;;;14.22;64.38;101826.91;677909;29;1382;-95
2023/10/01 01:08:00;;;;;;;10.63;6.95;;;;;;;14.25;64.65;101824.38;677674;29;1208;-95
2023/10/01 01:08:21;;;;;;;10.05;6.80;;;;;;;14.21;64.54;101819.84;683091;29;1113;-95
2023/10/01 01:08:46;;;;;;;10.15;6.43;;;;;;;14.25;64.55;101826.09;682958;29;1895;-95
2023/10/01 01:09:11;;;;;;;8.85;5.90;;;;;;;14.19;64.70;101818.94;680311;29;1180;-95
2023/10/01 01:09:31;;;;;;;8.68;6.40;;;;;;;14.24;64.41;101827.84;680543;29;1376;-96
2023/10/01 01:09:52;;;;;;;10.20;6.90;;;;;;;14.24;64.61;101825.22;680053;29;1150;-95
2023/10/01 01:10:18;;;;;;;10.88;7.60;;;;;;;14.20;64.60;101819.84;682459;29;1340;-95
2023/10/01 01:10:42;;;;;;;10.07;7.35;;;;;;;14.27;64.69;101823.53;685943;28;1448;-94
2023/10/01 01:11:03;;;;;;;10.35;7.10;;;;;;;14.16;64.74;101810.97;685405;28;1370;-96
2023/10/01 01:11:26;;;;;;;11.02;7.10;;;;;;;14.20;64.65;101819.84;683144;28;1133;-95
2023/10/01 01:11:47;;;;;;;10.63;6.82;;;;;;;14.24;64.71;101825.22;683380;29;1504;-95
2023/10/01 01:12:08;;;;;;;10.45;6.97;;;;;;;14.27;64.82;101826.16;680341;29;1382;-95
2023/10/01 01:12:29;;;;;;;9.05;6.57;;;;;;;14.25;64.63;101823.47;685639;28;1264;-95
2023/10/01 01:12:54;;;;;;;8.38;6.40;;;;;;;14.27;64.69;101821.81;683162;28;1212;-96
2023/10/01 01:13:16;;;;;;;7.88;6.25;;;;;;;14.31;65.00;101828.03;680280;29;1228;-95
2023/10/01 01:13:37;;;;;;;7.80;6.32;;;;;;;14.33;64.67;101826.34;685681;28;1364;-95
2023/10/01 01:13:58;;;;;;;8.85;6.80;;;;;;;14.33;64.61;101821.09;682955;29;1308;-95
2023/10/01 01:14:21;;;;;;;10.40;7.05;;;;;;;14.30;64.66;101799.97;677848;29;1124;-95
2023/10/01 01:14:45;;;;;;;10.10;7.22;;;;;;;14.35;64.79;101814.13;683281;29;1272;-95
2023/10/01 01:15:12;;;;;;;9.65;7.05;;;;;;;14.37;64.76;101813.34;677508;29;1231;-95
2023/10/01 01:15:34;;;;;;;9.65;6.72;;;;;;;14.40;64.75;101817.78;677919;29;1453;-95
2023/10/01 01:15:57;;;;;;;11.65;7.18;;;;;;;14.34;64.77;101808.00;679970;29;1314;-95
2023/10/01 01:16:19;;;;;;;10.40;7.30;;;;;;;14.39;64.73;101805.50;677744;29;1265;-95
2023/10/01 01:16:40;;;;;;;11.60;7.40;;;;;;;14.41;65.03;101811.69;683059;28;1303;-94
2023/10/01 01:17:04;;;;;;;12.20;7.40;;;;;;;14.44;64.79;101813.53;686375;28;1232;-95
2023/10/01 01:17:24;;;;;;;12.90;7.70;;;;;;;14.55;64.77;101824.34;685740;28;1288;-95
2023/10/01 01:17:45;;;;;;;11.98;7.78;;;;;;;14.48;64.89;101803.16;680195;29;1325;-96
2023/10/01 01:18:07;;;;;;;9.27;7.32;;;;;;;14.53;64.99;101806.78;688178;28;1407;-95
2023/10/01 01:18:34;;;;;;;7.93;6.60;;;;;;;14.62;64.89;101813.16;682861;29;1394;-95
2023/10/01 01:18:54;;;;;;;8.07;6.55;;;;;;;14.66;64.72;101812.38;680600;29;1316;-95
2023/10/01 01:19:15;;;;;;;9.38;6.80;;;;;;;14.64;64.71;101811.47;687365;28;1183;-95
2023/10/01 01:19:36;;;;;;;9.02;6.75;;;;;;;14.65;64.75;101800.97;685565;28;1119;-95
2023/10/01 01:19:57;;;;;;;9.52;6.85;;;;;;;14.64;64.69;101796.56;682916;28;1273;-95
2023/10/01 01:20:19;;;;;;;9.30;6.90;;;;;;;14.70;64.58;101803.75;685626;28;1356;-95
2023/10/01 01:20:46;;;;;;;9.27;6.85;;;;;;;14.75;64.61;101802.13;685823;28;1274;-95
2023/10/01 01:21:10;;;;;;;9.60;7.25;;;;;;;14.71;64.64;101796.75;682732;28;1217;-95
2023/10/01 01:21:31;;;;;;;12.80;7.80;;;;;;;14.72;64.64;101793.25;680096;29;1453;-95
2023/10/01 01:21:52;;;;;;;11.50;7.43;;;;;;;14.78;64.67;101802.22;680231;29;1230;-95
2023/10/01 01:22:28;;;;;;;11.82;7.35;;;;;;;14.76;64.75;101793.38;677482;29;1174;-95
2023/10/01 01:22:52;;;;;;;12.00;7.35;;;;;;;14.86;64.61;101801.53;682734;29;1338;-95
2023/10/01 01:23:23;;;;;;;14.50;7.68;;;;;;;14.90;64.50;101806.91;688323;28;1412;-95
2023/10/01 01:23:50;;;;;;;13.73;8.18;;;;;;;14.89;64.52;101799.84;680600;29;1257;-96
2023/10/01 01:24:11;;;;;;;12.27;8.38;;;;;;;14.98;64.44;101811.50;682953;29;1263;-95
2023/10/01 01:24:32;;;;;;;9.52;7.35;;;;;;;14.94;64.61;101798.25;685607;28;1343;-95
2023/10/01 01:24:52;;;;;;;8.67;7.13;;;;;;;15.02;64.21;101808.06;683218;28;1137;-95
2023/10/01 01:25:20;;;;;;;9.65;6.88;;;;;;;14.99;64.20;101803.63;683035;29;1410;-95
2023/10/01 01:25:40;;;;;;;10.82;6.88;;;;;;;15.04;64.07;101806.38;682980;29;1408;-95
2023/10/01 01:26:02;;;;;;;11.88;6.70;;;;;;;15.06;64.18;101813.44;680012;29;1266;-95
2023/10/01 01:26:24;;;;;;;9.73;6.70;;;;;;;15.07;64.20;101812.59;683005;29;1392;-95
2023/10/01 01:26:51;;;;;;;8.93;6.95;;;;;;;15.12;63.96;101806.59;681935;29;1403;-95
2023/10/01 01:27:15;;;;;;;8.98;6.88;;;;;;;15.03;64.04;101792.34;677719;29;1258;-95
2023/10/01 01:27:40;;;;;;;9.55;7.18;;;;;;;15.14;64.05;101804.88;680432;29;1320;-94
2023/10/01 01:28:01;;;;;;;10.30;7.20;;;;;;;15.12;64.07;101793.44;682819;28;1339;-95
2023/10/01 01:28:30;;;;;;;9.40;7.45;;;;;;;15.14;64.01;101802.25;682871;29;1393;-95
2023/10/01 01:28:51;;;;;;;10.45;7.65;;;;;;;15.14;64.10;101794.38;680427;29;1271;-95
2023/10/01 01:29:29;;;;;;;10.80;7.60;;;;;;;15.20;64.03;101797.16;680202;29;1368;-95
2023/10/01 01:29:50;;;;;;;9.18;6.93;;;;;;;15.21;64.06;101804.22;683132;28;1354;-94
2023/10/01 01:30:17;;;;;;;9.48;7.40;;;;;;;15.17;64.00;101791.78;679297;29;1359;-94
2023/10/01 01:30:42;;;;;;;10.88;7.47;;;;;;;15.21;63.84;101796.31;677837;29;1408;-94
2023/10/01 01:31:04;;;;;;;11.23;7.68;;;;;;;15.17;63.87;101781.28;680014;29;1238;-94
2023/10/01 01:31:28;;;;;;;9.32;7.22;;;;;;;15.26;64.10;101794.72;680357;29;1372;-94
2023/10/01 01:32:07;;;;;;;9.38;7.65;;;;;;;15.19;63.84;101784.84;682323;29;1264;-95
2023/10/01 01:32:28;;;;;;;13.93;8.30;;;;;;;15.26;63.79;101792.09;680224;29;1271;-94
2023/10/01 01:32:57;;;;;;;15.00;8.55;;;;;;;15.28;63.74;101794.72;680262;29;1379;-95
2023/10/01 01:33:26;;;;;;;14.18;8.35;;;;;;;15.32;63.73;101802.72;678145;29;1354;-94
2023/10/01 01:33:53;;;;;;;12.13;7.50;;;;;;;15.24;63.74;101783.25;685094;28;1312;-94
2023/10/01 01:34:13;;;;;;;10.27;7.47;;;;;;;15.29;63.74;101791.25;677495;29;1869;-94
2023/10/01 01:34:34;;;;;;;9.55;7.10;;;;;;;15.33;63.85;101794.03;679783;29;1205;-95
2023/10/01 01:34:55;;;;;;;9.43;7.35;;;;;;;15.37;63.61;101804.59;687692;28;1197;-94
2023/10/01 01:35:23;;;;;;;8.27;7.03;;;;;;;15.33;63.83;101796.66;682864;29;1243;-94
2023/10/01 01:35:45;;;;;;;8.85;7.50;;;;;;;15.37;63.85;101794.09;680304;29;1422;-94
2023/10/01 01:36:09;;;;;;;10.07;7.80;;;;;;;15.33;63.69;101785.22;685179;28;1223;-95
2023/10/01 01:36:30;;;;;;;10.60;7.80;;;;;;;15.39;63.67;101793.28;685538;28;1304;-94
2023/10/01 01:36:50;;;;;;;15.30;7.97;;;;;;;15.44;63.60;101802.16;677806;29;1354;-95
2023/10/01 01:38:04;;;;;;;14.55;7.60;;;;;;;15.46;63.74;101802.19;682608;28;1238;-95
2023/10/01 01:38:25;;;;;;;9.63;8.10;;;;;;;15.39;63.58;101784.47;685520;28;1433;-94
2023/10/01 01:39:12;;;;;;;9.68;8.13;;;;;;;15.50;63.67;101801.44;677557;29;1315;-94
2023/10/01 01:39:46;;;;;;;12.68;7.78;;;;;;;15.45;63.52;101790.78;677775;29;1419;-95
2023/10/01 01:40:57;;;;;;;11.30;7.00;;;;;;;15.43;63.51;101778.47;674749;29;1539;-95
2023/10/01 01:41:19;;;;;;;9.60;7.25;;;;;;;15.47;63.58;101788.19;676175;29;1350;-95
2023/10/01 01:41:42;;;;;;;9.48;7.43;;;;;;;15.52;63.52;101794.44;685774;28;1364;-95
2023/10/01 01:42:03;;;;;;;10.50;7.55;;;;;;;15.46;63.47;101784.69;684737;28;1255;-95
2023/10/01 01:42:25;;;;;;;10.43;7.38;;;;;;;15.47;63.56;101780.28;680296;29;1329;-94
2023/10/01 01:47:07;;;;;;;11.77;8.27;;;;;;;15.54;63.63;101776.09;691297;28;691;-95
2023/10/01 01:47:30;;;;;;;12.25;8.50;;;;;;;15.61;63.12;101778.00;683238;28;1355;-95
2023/10/01 01:47:51;;;;;;;10.20;7.80;;;;;;;15.57;63.12;101777.03;680395;29;1205;-95
2023/10/01 01:48:52;;;;;;;12.05;7.45;;;;;;;15.62;63.02;101785.91;685516;28;1372;-95
2023/10/01 01:49:14;;;;;;;9.25;7.35;;;;;;;15.54;62.91;101762.94;685340;28;1237;-95
2023/10/01 01:49:34;;;;;;;9.13;7.20;;;;;;;15.61;62.97;101778.88;680311;29;1381;-96
2023/10/01 01:50:07;;;;;;;9.48;7.32;;;;;;;15.61;63.09;101784.13;680134;29;1355;-95
2023/10/01 01:50:28;;;;;;;8.82;6.80;;;;;;;15.61;63.10;101789.41;682925;28;1474;-94
2023/10/01 01:50:49;;;;;;;10.27;7.13;;;;;;;15.55;62.91;101776.09;682702;29;1147;-95
2023/10/01 01:51:10;;;;;;;14.88;7.40;;;;;;;15.59;62.97;101780.59;682614;29;1289;-94
2023/10/01 01:51:31;;;;;;;14.15;7.53;;;;;;;15.62;62.81;101791.19;679818;29;1291;-95
2023/10/01 01:51:59;;;;;;;13.50;7.70;;;;;;;15.63;62.97;101792.94;677621;29;1262;-95
2023/10/01 01:52:21;;;;;;;10.40;7.55;;;;;;;15.59;62.84;101777.97;682825;29;1353;-94
2023/10/01 01:52:41;;;;;;;11.88;7.97;;;;;;;15.53;62.70;101762.03;688375;28;1230;-95
2023/10/01 01:53:04;;;;;;;12.48;8.25;;;;;;;15.57;62.90;101774.41;684690;28;1322;-95
2023/10/01 01:53:34;;;;;;;12.98;8.38;;;;;;;15.58;62.77;101773.56;683054;29;1314;-95
2023/10/01 01:53:56;;;;;;;12.27;8.18;;;;;;;15.57;63.00;101774.41;677749;29;1267;-94
2023/10/01 01:54:17;;;;;;;9.93;7.55;;;;;;;15.54;62.89;101771.69;682449;29;1298;-95
2023/10/01 01:54:42;;;;;;;8.57;6.70;;;;;;;15.57;62.66;101777.03;682617;29;1198;-94
2023/10/01 01:55:23;;;;;;;9.77;7.40;;;;;;;15.57;62.85;101774.41;677177;29;1347;-95
2023/10/01 01:55:43;;;;;;;10.40;7.82;;;;;;;15.58;62.67;101778.81;680562;29;1245;-95
2023/10/01 01:56:18;;;;;;;8.60;6.63;;;;;;;15.55;62.76;101770.84;682889;29;1200;-95
2023/10/01 01:56:40;;;;;;;9.82;6.43;;;;;;;15.61;62.95;101783.28;685675;28;882;-95